Time;durP1;ratioP1;P1;durP2;ratioP2;P2;SDS_P1;SDS_P2;PMS_P1;PMS_P2;Temp;Humidity;BMP_temperature;BMP_pressure;BME280_temperature;BME280_humidity;BME280_pressure;Samples;Min_cycle;Max_cycle;Signal;HPM_P1;HPM_P2
2022/06/23 00:02:19;;;;;;;1.83;1.73;;;;;;;21.31;87.26;95147.50;4323871;32;20197;-64
2022/06/23 00:04:49;;;;;;;2.20;1.77;;;;;;;21.34;86.59;95160.25;4318107;32;20193;-63
2022/06/23 00:07:24;;;;;;;1.50;1.50;;;;;;;21.42;85.88;95164.59;4340411;32;20275;-64
2022/06/23 00:09:53;;;;;;;5.00;1.83;;;;;;;21.36;86.33;95160.69;4334812;32;20268;-64
2022/06/23 00:12:39;;;;;;;7.43;2.53;;;;;;;21.31;86.69;95167.16;4334978;32;20188;-64
2022/06/23 00:15:15;;;;;;;2.43;1.90;;;;;;;21.29;86.93;95176.78;4296905;33;20223;-64
2022/06/23 00:18:02;;;;;;;1.23;1.23;;;;;;;21.27;87.29;95175.22;4334567;32;20211;-64
2022/06/23 00:20:47;;;;;;;1.40;1.40;;;;;;;21.29;87.06;95182.16;4325501;32;20190;-65
2022/06/23 00:23:49;;;;;;;2.63;1.93;;;;;;;21.35;86.45;95184.19;4330453;32;20197;-64
2022/06/23 00:26:33;;;;;;;1.80;1.70;;;;;;;21.33;86.87;95189.19;4283437;32;20305;-64
2022/06/23 00:29:15;;;;;;;1.83;1.70;;;;;;;21.33;87.10;95177.59;4346442;32;20248;-64
2022/06/23 00:31:44;;;;;;;3.60;2.00;;;;;;;21.32;87.06;95178.75;4294894;32;20296;-64
2022/06/23 00:34:37;;;;;;;2.20;2.03;;;;;;;21.32;87.00;95179.53;4329883;32;20229;-64
2022/06/23 00:37:15;;;;;;;1.67;1.57;;;;;;;21.32;87.40;95176.81;4333813;32;20215;-64
2022/06/23 00:39:55;;;;;;;2.23;2.07;;;;;;;21.32;87.47;95179.53;4324676;32;20186;-64
2022/06/23 00:43:02;;;;;;;1.70;1.70;;;;;;;21.30;88.02;95189.13;4316707;32;20189;-63
2022/06/23 00:46:14;;;;;;;3.07;2.87;;;;;;;21.39;87.51;95187.72;4307059;33;20204;-64
2022/06/23 00:48:53;;;;;;;1.50;1.47;;;;;;;21.37;87.85;95194.63;4319607;32;20212;-64
2022/06/23 00:51:29;;;;;;;4.87;1.90;;;;;;;21.40;87.78;95193.91;4322593;32;20177;-64
2022/06/23 00:54:22;;;;;;;3.13;2.70;;;;;;;21.35;88.12;95189.59;4341137;32;20260;-64
2022/06/23 00:57:27;;;;;;;2.50;2.30;;;;;;;21.33;88.63;95199.19;4300229;33;20193;-64
2022/06/23 01:00:09;;;;;;;1.77;1.67;;;;;;;21.37;88.55;95200.81;4333694;32;23168;-64
2022/06/23 01:02:42;;;;;;;1.50;1.50;;;;;;;21.35;87.95;95191.50;4333327;32;20227;-63
2022/06/23 01:05:21;;;;;;;2.20;2.10;;;;;;;21.33;87.89;95194.56;4336967;32;20197;-64
2022/06/23 01:08:17;;;;;;;2.40;2.20;;;;;;;21.35;87.91;95192.28;4314716;32;20253;-63
2022/06/23 01:10:55;;;;;;;2.03;1.93;;;;;;;21.29;87.72;95201.84;4294018;33;20263;-64
2022/06/23 01:13:58;;;;;;;1.63;1.63;;;;;;;21.28;87.58;95208.38;4328775;32;20243;-64
2022/06/23 01:16:41;;;;;;;2.17;2.07;;;;;;;21.30;87.61;95210.72;4334571;32;20276;-64
2022/06/23 01:19:48;;;;;;;1.63;1.53;;;;;;;21.26;87.08;95214.13;4338069;32;20213;-64
2022/06/23 01:22:49;;;;;;;2.13;1.93;;;;;;;21.19;86.63;95216.72;4289305;32;20211;-64
2022/06/23 01:25:37;;;;;;;1.77;1.73;;;;;;;21.11;86.80;95219.66;4339425;32;20192;-65
2022/06/23 01:28:17;;;;;;;1.47;1.37;;;;;;;21.08;87.20;95215.78;4321598;32;20247;-64
2022/06/23 01:31:17;;;;;;;1.90;1.73;;;;;;;21.01;88.06;95218.34;4335082;32;20265;-64
2022/06/23 01:33:56;;;;;;;3.47;1.87;;;;;;;21.11;87.97;95215.03;4303795;33;20201;-64
2022/06/23 01:36:40;;;;;;;2.87;1.57;;;;;;;21.05;88.70;95213.78;4322066;32;20247;-64
2022/06/23 01:39:27;;;;;;;1.63;1.43;;;;;;;21.13;88.83;95206.59;4312447;32;20198;-64
2022/06/23 01:42:13;;;;;;;1.07;1.07;;;;;;;21.14;89.15;95208.94;4349654;32;20260;-64
2022/06/23 01:44:53;;;;;;;1.60;1.50;;;;;;;21.23;88.90;95211.38;4313848;32;20204;-64
2022/06/23 01:47:59;;;;;;;2.17;1.73;;;;;;;21.17;89.19;95213.59;4292877;32;20193;-64
2022/06/23 01:50:35;;;;;;;1.77;1.73;;;;;;;21.26;88.85;95216.84;4328361;32;20251;-64
2022/06/23 01:53:13;;;;;;;1.20;1.20;;;;;;;21.05;89.92;95226.50;4310951;32;20252;-64
2022/06/23 01:56:15;;;;;;;15.00;1.67;;;;;;;21.15;89.42;95223.19;4326108;32;20220;-64
2022/06/23 01:59:13;;;;;;;2.97;2.07;;;;;;;21.06;89.66;95228.06;4332263;32;20211;-64
2022/06/23 02:01:55;;;;;;;1.47;1.47;;;;;;;20.95;90.04;95233.31;4311475;32;20208;-64
2022/06/23 02:04:54;;;;;;;3.70;2.20;;;;;;;20.84;90.08;95243.91;4325792;32;20197;-65
2022/06/23 02:07:42;;;;;;;2.00;1.90;;;;;;;20.78;90.33;95223.78;4322128;32;20201;-64
2022/06/23 02:10:47;;;;;;;1.43;1.43;;;;;;;20.89;89.96;95234.75;4330594;32;20236;-64
2022/06/23 02:13:55;;;;;;;2.53;2.23;;;;;;;20.92;89.92;95234.03;4313540;32;20244;-64
2022/06/23 02:16:43;;;;;;;6.97;1.53;;;;;;;20.99;89.33;95239.50;4327021;32;20260;-64
2022/06/23 02:19:39;;;;;;;1.43;1.43;;;;;;;20.98;89.01;95237.19;4326623;32;20190;-64
2022/06/23 02:22:10;;;;;;;2.03;1.57;;;;;;;21.02;89.05;95232.63;4329155;32;20197;-63
2022/06/23 02:25:19;;;;;;;1.57;1.57;;;;;;;21.04;88.70;95231.13;4324186;32;20202;-64
2022/06/23 02:27:55;;;;;;;1.37;1.37;;;;;;;20.99;89.04;95236.06;4329527;32;20197;-64
2022/06/23 02:30:33;;;;;;;0.97;0.97;;;;;;;20.96;89.25;95234.88;4338628;32;20215;-64
2022/06/23 02:33:21;;;;;;;1.03;1.03;;;;;;;20.97;89.19;95236.41;4315450;32;20207;-64
2022/06/23 02:36:27;;;;;;;1.10;1.10;;;;;;;21.00;89.05;95238.37;4325250;32;20212;-64
2022/06/23 02:39:17;;;;;;;2.10;0.90;;;;;;;20.98;88.99;95248.00;4292829;33;20296;-64
2022/06/23 02:41:59;;;;;;;1.00;0.80;;;;;;;20.93;89.41;95246.38;4265183;33;20228;-64
2022/06/23 02:44:55;;;;;;;2.00;1.50;;;;;;;21.06;88.94;95249.66;4295285;33;20190;-64
2022/06/23 02:47:29;;;;;;;0.83;0.83;;;;;;;20.99;89.24;95244.91;4277586;33;20235;-64
2022/06/23 02:50:33;;;;;;;2.03;1.83;;;;;;;20.99;89.18;95249.56;4288462;33;20216;-64
2022/06/23 02:53:25;;;;;;;3.50;1.47;;;;;;;20.95;89.06;95254.88;4233438;33;20225;-65
2022/06/23 02:56:12;;;;;;;1.93;1.83;;;;;;;20.89;89.47;95261.72;4294713;33;20204;-64
2022/06/23 02:59:20;;;;;;;1.77;1.67;;;;;;;20.96;89.67;95261.84;4251701;33;20209;-64
2022/06/23 03:02:03;;;;;;;1.93;1.77;;;;;;;20.95;89.37;95264.88;4332817;32;20252;-64
2022/06/23 03:04:41;;;;;;;0.90;0.90;;;;;;;20.88;89.69;95265.53;4340419;32;20204;-64
2022/06/23 03:07:17;;;;;;;3.30;1.07;;;;;;;20.85;90.08;95272.44;4296821;32;20220;-64
2022/06/23 03:09:49;;;;;;;1.67;1.57;;;;;;;20.88;89.78;95276.34;4328829;32;20241;-63
2022/06/23 03:12:22;;;;;;;1.30;1.20;;;;;;;20.87;89.87;95280.16;4325144;32;20186;-63
2022/06/23 03:15:01;;;;;;;1.83;1.37;;;;;;;20.90;89.62;95280.22;4336833;32;20194;-64
2022/06/23 03:17:43;;;;;;;2.67;2.20;;;;;;;20.66;90.32;95269.00;4326307;32;20196;-64
2022/06/23 03:20:39;;;;;;;1.67;1.57;;;;;;;20.79;90.21;95273.09;4292152;32;20209;-64
2022/06/23 03:23:19;;;;;;;1.63;1.53;;;;;;;20.78;90.03;95274.25;4336370;32;20190;-63
2022/06/23 03:26:37;;;;;;;1.13;1.13;;;;;;;20.82;89.96;95277.75;4337950;32;20193;-64
2022/06/23 03:29:22;;;;;;;1.80;1.63;;;;;;;20.81;89.84;95281.59;4314157;33;20249;-64
2022/06/23 03:32:18;;;;;;;1.27;1.27;;;;;;;20.69;90.26;95284.47;4261132;33;20297;-64
2022/06/23 03:34:49;;;;;;;0.87;0.87;;;;;;;20.75;89.99;95283.84;4308508;33;20186;-64
2022/06/23 03:37:44;;;;;;;1.40;1.33;;;;;;;20.65;90.24;95289.03;4299856;33;20183;-64
2022/06/23 03:43:48;;;;;;;2.73;1.47;;;;;;;20.59;90.55;95289.31;4282863;33;20225;-64
2022/06/23 03:46:27;;;;;;;1.63;1.53;;;;;;;20.64;90.19;95288.25;4303246;33;20190;-64
2022/06/23 03:49:18;;;;;;;1.50;1.37;;;;;;;20.71;89.80;95293.00;4318779;33;20256;-64
2022/06/23 03:51:55;;;;;;;1.00;1.00;;;;;;;20.58;90.35;95290.44;4302119;32;20201;-64
2022/06/23 03:54:36;;;;;;;1.20;1.20;;;;;;;20.65;90.43;95299.81;4322074;32;20236;-64
2022/06/23 03:57:18;;;;;;;2.77;1.57;;;;;;;20.59;90.41;95304.69;4337914;32;20194;-64
2022/06/23 03:59:59;;;;;;;1.53;1.03;;;;;;;20.67;90.07;95300.22;4332054;32;20252;-64
2022/06/23 04:02:48;;;;;;;2.13;1.73;;;;;;;20.58;90.08;95303.16;4336685;32;20364;-64
2022/06/23 04:05:38;;;;;;;1.60;1.03;;;;;;;20.57;90.39;95297.00;4341917;32;20186;-64
2022/06/23 04:08:08;;;;;;;5.50;1.03;;;;;;;20.44;90.62;95300.97;4334677;32;20189;-64
2022/06/23 04:10:42;;;;;;;1.80;1.40;;;;;;;20.54;90.10;95308.50;4335617;32;20194;-64
2022/06/23 04:13:22;;;;;;;1.20;1.20;;;;;;;20.45;90.43;95305.22;4291434;32;20250;-64
2022/06/23 04:16:10;;;;;;;1.33;0.90;;;;;;;20.42;90.88;95307.84;4337963;32;20257;-64
2022/06/23 04:18:46;;;;;;;0.80;0.80;;;;;;;20.57;90.33;95305.09;4281292;33;20202;-63
2022/06/23 04:21:24;;;;;;;1.10;1.10;;;;;;;20.43;90.35;95296.72;4279941;33;20246;-64
2022/06/23 04:23:56;;;;;;;1.27;1.10;;;;;;;20.55;90.21;95301.19;4329903;32;20239;-64
2022/06/23 04:26:41;;;;;;;2.83;1.53;;;;;;;20.59;89.50;95302.78;4326488;32;20245;-64
2022/06/23 04:29:34;;;;;;;1.97;1.23;;;;;;;20.40;90.08;95291.25;4316267;32;20313;-64
2022/06/23 04:32:07;;;;;;;3.00;2.13;;;;;;;20.42;90.31;95303.25;4341322;32;20241;-64
2022/06/23 04:35:05;;;;;;;1.10;1.10;;;;;;;20.41;90.55;95295.50;4311191;32;20197;-64
2022/06/23 04:38:01;;;;;;;3.23;1.60;;;;;;;20.54;90.19;95305.81;4314121;32;20205;-64
2022/06/23 04:40:32;;;;;;;1.13;1.13;;;;;;;20.69;89.29;95293.34;4322688;32;20272;-64
2022/06/23 04:43:44;;;;;;;1.73;1.57;;;;;;;20.64;89.07;95298.25;4342074;32;20205;-64
2022/06/23 04:46:43;;;;;;;1.57;1.47;;;;;;;20.49;90.10;95303.38;4331699;32;20193;-64
2022/06/23 04:49:40;;;;;;;3.70;1.90;;;;;;;20.52;89.81;95302.69;4316963;32;20249;-64
2022/06/23 04:52:32;;;;;;;3.10;1.40;;;;;;;20.45;89.93;95304.44;4297515;32;20197;-64
2022/06/23 04:55:13;;;;;;;9.80;2.87;;;;;;;20.56;90.01;95300.84;4335375;32;20193;-64
2022/06/23 04:58:03;;;;;;;2.10;2.00;;;;;;;20.58;89.75;95301.22;4337659;32;20253;-64
2022/06/23 05:00:50;;;;;;;1.77;1.53;;;;;;;20.64;89.55;95300.94;4333382;32;20262;-65
2022/06/23 05:03:34;;;;;;;6.70;2.07;;;;;;;20.67;89.54;95298.31;4312921;33;20229;-64
2022/06/23 05:06:15;;;;;;;1.13;1.13;;;;;;;20.70;89.47;95302.22;4290335;33;20213;-64
2022/06/23 05:08:45;;;;;;;1.90;1.10;;;;;;;20.78;88.96;95299.31;4332970;32;20199;-64
2022/06/23 05:11:40;;;;;;;1.40;1.40;;;;;;;20.76;88.67;95301.56;4308450;32;20198;-64
2022/06/23 05:14:14;;;;;;;1.87;1.77;;;;;;;20.80;88.41;95301.62;4287274;32;20185;-64
2022/06/23 05:16:43;;;;;;;9.37;2.33;;;;;;;20.92;87.93;95302.22;4332809;32;20229;-64
2022/06/23 05:19:13;;;;;;;1.40;1.30;;;;;;;20.91;87.87;95297.97;4315945;32;20201;-64
2022/06/23 05:21:54;;;;;;;1.43;1.43;;;;;;;20.90;87.93;95299.13;4342194;32;20190;-64
2022/06/23 05:24:35;;;;;;;0.63;0.63;;;;;;;20.88;87.77;95303.31;4326557;32;20197;-61
2022/06/23 05:27:06;;;;;;;0.60;0.60;;;;;;;20.86;88.22;95308.28;4322807;33;20197;-64
2022/06/23 05:29:39;;;;;;;2.90;1.17;;;;;;;20.88;87.87;95308.69;4336353;32;20223;-65
2022/06/23 05:32:15;;;;;;;0.63;0.63;;;;;;;20.82;87.89;95304.72;4325315;33;20235;-64
2022/06/23 05:35:13;;;;;;;1.37;1.10;;;;;;;20.73;87.26;95304.97;4336879;32;20193;-64
2022/06/23 05:38:06;;;;;;;0.90;0.90;;;;;;;20.93;86.95;95305.72;4320979;32;20257;-64
2022/06/23 05:40:52;;;;;;;1.50;1.40;;;;;;;21.00;86.56;95311.22;4318358;33;20235;-64
2022/06/23 05:43:20;;;;;;;1.33;1.33;;;;;;;21.04;86.98;95301.25;4300709;33;20200;-64
2022/06/23 05:45:57;;;;;;;1.57;1.40;;;;;;;21.03;86.82;95305.09;4330375;32;20247;-64
2022/06/23 05:48:42;;;;;;;1.50;1.40;;;;;;;21.14;86.90;95300.66;4294262;33;20194;-64
2022/06/23 05:51:20;;;;;;;6.50;1.37;;;;;;;21.21;86.40;95310.81;4327977;32;20177;-64
2022/06/23 05:54:23;;;;;;;1.03;1.03;;;;;;;21.25;86.49;95303.56;4322330;32;20189;-64
2022/06/23 05:57:17;;;;;;;0.73;0.73;;;;;;;21.29;86.37;95303.63;4345925;32;20231;-65
2022/06/23 05:59:53;;;;;;;1.73;1.63;;;;;;;21.24;83.22;95310.88;4340175;32;20272;-64
2022/06/23 06:02:35;;;;;;;1.07;1.00;;;;;;;21.31;84.34;95304.81;4344119;32;20318;-65
2022/06/23 06:05:02;;;;;;;0.90;0.90;;;;;;;21.43;82.70;95303.81;4328463;32;20178;-65
2022/06/23 06:07:35;;;;;;;3.53;2.07;;;;;;;21.44;81.59;95300.75;4334254;32;20193;-65
2022/06/23 06:10:15;;;;;;;5.87;2.93;;;;;;;21.54;81.90;95293.97;4293394;33;20235;-65
2022/06/23 06:12:53;;;;;;;4.73;1.87;;;;;;;21.66;82.42;95303.78;4330165;32;20189;-65
2022/06/23 06:15:56;;;;;;;7.87;2.00;;;;;;;21.74;80.22;95306.22;4331706;32;20193;-65
2022/06/23 06:18:35;;;;;;;5.33;2.43;;;;;;;21.75;80.61;95302.38;4322357;32;20194;-50
2022/06/23 06:21:07;;;;;;;1.63;1.53;;;;;;;21.87;81.36;95310.25;4299268;32;20194;-51
2022/06/23 06:24:04;;;;;;;3.40;1.83;;;;;;;22.03;80.48;95314.75;4320682;32;20227;-51
2022/06/23 06:26:39;;;;;;;1.23;0.97;;;;;;;22.17;80.06;95317.62;4314758;33;20189;-50
2022/06/23 06:29:22;;;;;;;1.40;1.30;;;;;;;22.19;79.67;95315.34;4325392;32;20177;-53
2022/06/23 06:31:57;;;;;;;1.43;1.43;;;;;;;22.31;80.03;95320.50;4324058;32;20197;-48
2022/06/23 06:34:38;;;;;;;0.63;0.63;;;;;;;22.42;79.79;95324.13;4307155;32;20184;-51
2022/06/23 06:37:09;;;;;;;0.87;0.87;;;;;;;22.48;78.82;95322.63;4284389;32;20269;-52
2022/06/23 06:39:41;;;;;;;1.27;1.20;;;;;;;22.57;78.73;95319.63;4322513;32;20185;-51
2022/06/23 06:42:11;;;;;;;0.90;0.90;;;;;;;22.68;78.15;95327.84;4315482;32;20190;-50
2022/06/23 06:44:44;;;;;;;1.03;1.03;;;;;;;22.59;77.56;95323.53;4321056;32;20193;-49
2022/06/23 06:47:23;;;;;;;0.80;0.80;;;;;;;22.58;78.04;95324.69;4326180;32;20201;-50
2022/06/23 06:49:53;;;;;;;0.70;0.70;;;;;;;22.66;77.36;95322.03;4321450;32;20205;-51
2022/06/23 06:52:20;;;;;;;1.30;0.77;;;;;;;22.66;74.80;95322.81;4320816;32;20190;-50
2022/06/23 06:54:55;;;;;;;0.73;0.73;;;;;;;22.72;75.63;95323.25;4301023;32;20213;-53
2022/06/23 06:57:32;;;;;;;1.07;1.07;;;;;;;22.78;76.61;95321.81;4329347;32;20205;-53
2022/06/23 07:00:24;;;;;;;1.37;1.27;;;;;;;22.70;74.40;95328.25;4317108;33;20189;-50
2022/06/23 07:02:59;;;;;;;0.93;0.93;;;;;;;22.72;75.74;95320.56;4314766;32;20208;-51
2022/06/23 07:05:33;;;;;;;0.77;0.77;;;;;;;22.78;74.36;95330.72;4304795;32;20347;-51
2022/06/23 07:08:22;;;;;;;1.83;1.70;;;;;;;22.68;72.97;95333.25;4330261;32;20252;-51
2022/06/23 07:11:12;;;;;;;1.03;0.67;;;;;;;22.55;72.78;95336.22;4317396;32;20233;-51
2022/06/23 07:13:49;;;;;;;0.97;0.97;;;;;;;22.36;71.80;95339.09;4306670;32;20194;-49
2022/06/23 07:16:37;;;;;;;0.73;0.73;;;;;;;22.35;71.97;95332.12;4288152;32;20193;-50
2022/06/23 07:19:14;;;;;;;2.10;1.00;;;;;;;22.56;73.74;95334.31;4230662;33;20190;-52
2022/06/23 07:21:52;;;;;;;1.17;1.07;;;;;;;22.56;71.32;95335.09;4318576;32;20265;-51
2022/06/23 07:24:30;;;;;;;0.70;0.70;;;;;;;22.52;70.37;95334.25;4328522;32;20201;-52
2022/06/23 07:27:30;;;;;;;0.70;0.70;;;;;;;22.50;71.35;95328.44;4322148;32;20189;-50
2022/06/23 07:30:18;;;;;;;0.30;0.30;;;;;;;22.50;73.15;95333.84;4325668;32;20272;-47
2022/06/23 07:33:28;;;;;;;0.90;0.90;;;;;;;22.54;71.70;95323.84;4313372;33;20259;-49
2022/06/23 07:36:21;;;;;;;0.60;0.47;;;;;;;22.69;72.89;95327.47;4248050;33;20235;-48
2022/06/23 07:39:23;;;;;;;1.23;1.07;;;;;;;22.66;70.15;95322.03;4272985;32;20197;-53
2022/06/23 07:42:23;;;;;;;0.97;0.90;;;;;;;22.68;68.54;95325.94;4294900;32;20198;-53
2022/06/23 07:45:01;;;;;;;0.80;0.80;;;;;;;22.61;68.83;95321.25;4309439;32;20194;-52
2022/06/23 07:47:28;;;;;;;0.80;0.80;;;;;;;22.62;67.51;95317.38;4263191;32;20291;-49
2022/06/23 07:49:55;;;;;;;0.80;0.80;;;;;;;22.71;69.34;95319.78;4278925;33;20301;-54
2022/06/23 07:52:23;;;;;;;0.70;0.70;;;;;;;22.74;69.33;95323.69;4309485;32;20189;-53
2022/06/23 07:54:51;;;;;;;4.93;0.67;;;;;;;22.77;70.04;95326.44;4295024;32;20252;-52
2022/06/23 07:57:17;;;;;;;0.50;0.50;;;;;;;22.87;68.56;95325.75;4300261;33;20199;-49
2022/06/23 07:59:51;;;;;;;0.20;0.20;;;;;;;22.81;66.68;95319.16;4290794;33;20228;-51
2022/06/23 08:02:23;;;;;;;0.67;0.67;;;;;;;22.91;68.94;95317.69;4311006;32;20186;-51
2022/06/23 08:05:35;;;;;;;0.90;0.90;;;;;;;22.91;66.67;95317.69;4315209;33;20198;-49
2022/06/23 08:08:02;;;;;;;0.50;0.50;;;;;;;22.97;68.92;95310.78;4278790;33;20201;-50
2022/06/23 08:10:31;;;;;;;0.83;0.83;;;;;;;23.02;68.46;95315.09;4327286;32;20374;-52
2022/06/23 08:13:16;;;;;;;0.53;0.53;;;;;;;23.03;67.64;95309.31;4303661;32;20190;-51
2022/06/23 08:19:00;;;;;;;0.53;0.53;;;;;;;23.03;68.37;95292.28;4331767;32;20208;-55
2022/06/23 08:21:41;;;;;;;4.30;1.17;;;;;;;23.07;68.17;95293.84;4306918;32;20181;-50
2022/06/23 08:24:18;;;;;;;1.90;0.80;;;;;;;23.12;66.72;95296.22;4290422;32;20199;-49
2022/06/23 08:26:50;;;;;;;0.47;0.47;;;;;;;23.15;67.69;95300.91;4324033;32;20252;-51
2022/06/23 08:29:26;;;;;;;4.60;1.03;;;;;;;23.23;67.28;95296.31;4310109;32;20209;-52
2022/06/23 08:31:52;;;;;;;2.07;1.67;;;;;;;23.27;67.43;95292.50;4304535;32;20189;-52
2022/06/23 08:34:20;;;;;;;0.90;0.67;;;;;;;23.36;68.91;95292.16;4327726;32;20185;-51
2022/06/23 08:37:00;;;;;;;0.70;0.70;;;;;;;23.43;69.27;95289.53;4317741;32;20186;-52
2022/06/23 08:39:44;;;;;;;1.50;1.03;;;;;;;23.47;69.77;95282.19;4326156;32;20198;-51
2022/06/23 08:42:58;;;;;;;0.77;0.77;;;;;;;23.45;68.71;95283.72;4317127;32;20204;-53
2022/06/23 08:45:46;;;;;;;6.63;1.07;;;;;;;23.51;67.24;95277.56;4346335;32;20228;-55
2022/06/23 08:48:23;;;;;;;3.00;1.87;;;;;;;23.53;67.89;95277.22;4334125;32;20190;-51
2022/06/23 08:51:30;;;;;;;1.50;1.00;;;;;;;23.57;67.79;95278.03;4328537;32;20216;-53
2022/06/23 08:54:27;;;;;;;7.00;0.77;;;;;;;23.62;68.77;95274.97;4336166;32;20280;-51
2022/06/23 08:57:33;;;;;;;1.00;0.70;;;;;;;23.54;68.00;95273.34;4329247;32;20186;-52
2022/06/23 09:00:29;;;;;;;0.93;0.93;;;;;;;23.52;68.33;95270.25;4325288;32;20204;-54
2022/06/23 09:03:02;;;;;;;0.90;0.90;;;;;;;23.59;67.22;95267.59;4318700;32;20268;-54
2022/06/23 09:06:07;;;;;;;0.90;0.90;;;;;;;23.51;66.74;95265.94;4319253;32;20201;-54
2022/06/23 09:09:06;;;;;;;0.80;0.80;;;;;;;23.51;66.75;95271.38;4234971;33;20187;-52
2022/06/23 09:12:07;;;;;;;0.80;0.80;;;;;;;23.43;67.04;95265.16;4255688;33;20203;-54
2022/06/23 09:15:03;;;;;;;0.83;0.83;;;;;;;23.51;66.12;95263.25;4309369;33;20216;-55
2022/06/23 09:18:01;;;;;;;3.00;1.23;;;;;;;23.67;64.98;95265.72;4341436;32;20223;-55
2022/06/23 09:20:54;;;;;;;0.53;0.53;;;;;;;23.76;63.96;95264.19;4301820;32;20272;-48
2022/06/23 09:23:51;;;;;;;1.33;0.73;;;;;;;23.81;62.44;95271.97;4330587;32;20248;-54
2022/06/23 09:26:22;;;;;;;4.53;0.70;;;;;;;23.85;61.59;95259.22;4323929;32;20295;-55
2022/06/23 09:28:55;;;;;;;1.43;1.43;;;;;;;23.83;61.99;95250.69;4342649;32;20177;-54
2022/06/23 09:31:58;;;;;;;1.13;0.67;;;;;;;23.90;63.03;95248.00;4340498;32;20200;-55
2022/06/23 09:35:02;;;;;;;3.80;2.03;;;;;;;23.96;62.83;95240.28;4340238;32;20256;-57
2022/06/23 09:38:05;;;;;;;0.53;0.53;;;;;;;24.11;63.28;95238.44;4326522;32;20292;-56
2022/06/23 09:41:04;;;;;;;1.07;1.07;;;;;;;24.10;61.60;95226.03;4332281;32;20261;-54
2022/06/23 09:44:08;;;;;;;0.77;0.77;;;;;;;24.16;62.13;95227.19;4326963;32;20209;-56
2022/06/23 09:46:59;;;;;;;3.20;0.77;;;;;;;24.35;61.38;95224.19;4255853;33;20202;-55
2022/06/23 09:49:40;;;;;;;0.77;0.77;;;;;;;24.40;60.91;95215.66;4282362;33;20308;-56
2022/06/23 09:52:44;;;;;;;0.77;0.77;;;;;;;24.37;61.87;95216.44;4351878;32;20223;-54
2022/06/23 09:55:34;;;;;;;0.83;0.83;;;;;;;24.42;61.76;95213.34;4337983;32;20224;-56
2022/06/23 09:58:20;;;;;;;0.50;0.50;;;;;;;24.50;62.36;95212.22;4327371;32;20204;-54
2022/06/23 10:01:27;;;;;;;3.30;1.10;;;;;;;24.64;61.01;95208.75;4325030;32;20220;-54
2022/06/23 10:04:51;;;;;;;0.27;0.27;;;;;;;24.79;60.81;95209.50;4338362;32;20253;-54
2022/06/23 10:07:40;;;;;;;5.87;1.23;;;;;;;24.91;59.95;95201.00;4270484;33;20238;-54
2022/06/23 10:10:49;;;;;;;0.73;0.73;;;;;;;25.01;59.38;95202.97;4264991;33;20198;-55
2022/06/23 10:13:47;;;;;;;0.70;0.70;;;;;;;25.08;58.78;95194.81;4325128;32;20200;-54
2022/06/23 10:16:37;;;;;;;4.07;1.63;;;;;;;25.15;58.45;95194.03;4337648;32;20189;-55
2022/06/23 10:19:22;;;;;;;1.90;0.80;;;;;;;25.25;59.28;95190.53;4336288;32;20189;-54
2022/06/23 10:22:02;;;;;;;1.20;1.10;;;;;;;25.18;58.50;95198.66;4332366;32;20193;-54
2022/06/23 10:24:46;;;;;;;1.00;0.97;;;;;;;25.20;58.99;95190.91;4333916;32;20200;-54
2022/06/23 10:28:00;;;;;;;1.37;1.27;;;;;;;25.30;58.53;95182.75;4319960;32;20268;-53
2022/06/23 10:31:14;;;;;;;3.33;1.53;;;;;;;25.38;57.95;95188.94;4319910;32;20343;-53
2022/06/23 10:34:20;;;;;;;1.20;0.67;;;;;;;25.79;56.07;95183.78;4278276;33;20194;-53
2022/06/23 10:37:36;;;;;;;0.50;0.50;;;;;;;25.71;57.56;95187.72;4289250;33;20212;-54
2022/06/23 10:40:49;;;;;;;0.97;0.97;;;;;;;25.24;59.88;95186.25;4254787;33;20195;-54
2022/06/23 10:43:53;;;;;;;0.60;0.60;;;;;;;25.53;58.79;95176.09;4229864;33;20223;-51
2022/06/23 10:46:42;;;;;;;2.57;1.77;;;;;;;25.93;57.12;95186.47;4242321;33;20278;-53
2022/06/23 10:49:32;;;;;;;0.60;0.60;;;;;;;25.94;56.52;95181.81;4212128;33;20224;-55
2022/06/23 10:52:34;;;;;;;1.10;1.03;;;;;;;25.85;57.07;95174.06;4308377;32;20193;-54
2022/06/23 10:55:03;;;;;;;1.07;0.60;;;;;;;25.94;56.75;95174.44;4327203;32;20238;-51
2022/06/23 10:58:08;;;;;;;0.30;0.30;;;;;;;25.78;56.56;95162.44;4324042;32;20201;-54
2022/06/23 11:01:20;;;;;;;0.63;0.63;;;;;;;26.06;56.55;95165.03;4338034;32;20303;-54
2022/06/23 11:04:33;;;;;;;0.63;0.63;;;;;;;26.15;56.08;95168.09;4330919;32;20197;-52
2022/06/23 11:07:27;;;;;;;1.13;1.13;;;;;;;26.05;56.05;95160.00;4336547;32;20284;-52
2022/06/23 11:10:22;;;;;;;1.93;1.37;;;;;;;25.79;57.47;95159.31;4330100;32;20229;-54
2022/06/23 11:12:57;;;;;;;2.33;0.87;;;;;;;25.53;58.31;95160.59;4327097;32;20228;-55
2022/06/23 11:15:52;;;;;;;0.33;0.33;;;;;;;25.51;58.11;95156.72;4333376;32;20188;-54
2022/06/23 11:18:45;;;;;;;0.87;0.87;;;;;;;25.64;57.98;95152.41;4337827;32;20205;-54
2022/06/23 11:21:10;;;;;;;4.40;2.00;;;;;;;25.95;57.14;95158.88;4341421;32;20249;-55
2022/06/23 11:23:51;;;;;;;2.30;1.87;;;;;;;25.96;57.33;95161.22;4359964;32;20193;-53
2022/06/23 11:26:22;;;;;;;0.70;0.70;;;;;;;25.71;58.89;95157.06;4345418;32;20196;-55
2022/06/23 11:29:09;;;;;;;0.63;0.63;;;;;;;25.68;57.54;95155.88;4358036;32;20264;-54
2022/06/23 11:31:56;;;;;;;1.13;1.13;;;;;;;25.50;58.88;95142.34;4329804;32;20224;-54
2022/06/23 11:34:33;;;;;;;1.20;1.20;;;;;;;25.48;58.66;95141.19;4338351;32;20249;-54
2022/06/23 11:37:27;;;;;;;0.60;0.60;;;;;;;25.70;58.58;95137.25;4357372;32;20228;-53
2022/06/23 11:40:20;;;;;;;3.93;1.77;;;;;;;26.16;56.02;95131.56;4343903;32;20190;-54
2022/06/23 11:43:11;;;;;;;1.20;1.10;;;;;;;26.15;55.77;95137.41;4358512;32;20203;-55
2022/06/23 11:46:00;;;;;;;11.57;1.10;;;;;;;26.23;54.50;95131.50;4341045;32;20250;-53
2022/06/23 11:48:44;;;;;;;1.17;1.07;;;;;;;26.19;54.84;95113.66;4352244;32;20223;-53
2022/06/23 11:51:44;;;;;;;1.00;0.93;;;;;;;26.32;54.19;95122.94;4343419;32;20220;-53
2022/06/23 11:54:29;;;;;;;1.03;1.03;;;;;;;26.29;54.31;95104.66;4356974;32;20193;-54
2022/06/23 11:57:25;;;;;;;3.47;1.03;;;;;;;26.19;54.18;95119.88;4347974;32;20243;-54
2022/06/23 12:00:07;;;;;;;0.43;0.40;;;;;;;26.24;53.71;95110.53;4334485;32;20184;-53
2022/06/23 12:02:42;;;;;;;7.63;1.20;;;;;;;26.33;53.24;95119.84;4355489;32;20199;-50
2022/06/23 12:05:32;;;;;;;1.03;1.03;;;;;;;26.31;53.34;95100.41;4355298;32;20197;-54
2022/06/23 12:08:12;;;;;;;13.47;1.30;;;;;;;26.39;52.48;95106.59;4341616;32;20197;-54
2022/06/23 12:10:38;;;;;;;0.60;0.60;;;;;;;26.16;53.67;95103.59;4341384;32;20216;-53
2022/06/23 12:13:05;;;;;;;0.70;0.43;;;;;;;26.18;52.98;95101.25;4346913;32;20212;-53
2022/06/23 12:15:44;;;;;;;2.13;1.10;;;;;;;26.12;54.30;95102.84;4356719;32;20209;-50
2022/06/23 12:18:23;;;;;;;0.67;0.67;;;;;;;25.98;55.81;95095.56;4354206;32;20181;-52
2022/06/23 12:21:06;;;;;;;0.30;0.30;;;;;;;26.24;54.16;95086.81;4346713;32;20200;-57
2022/06/23 12:23:40;;;;;;;1.20;1.10;;;;;;;26.13;54.29;95088.84;4353400;32;20212;-54
2022/06/23 12:26:14;;;;;;;4.40;0.73;;;;;;;26.32;53.66;95084.84;4348045;32;20205;-55
2022/06/23 12:28:56;;;;;;;1.37;0.83;;;;;;;26.30;53.68;95081.75;4343389;32;20197;-56
2022/06/23 12:31:29;;;;;;;1.03;0.40;;;;;;;26.32;53.98;95079.41;4352361;32;20196;-55
2022/06/23 12:34:03;;;;;;;4.17;1.40;;;;;;;26.33;52.01;95070.84;4341154;32;20229;-55
2022/06/23 12:36:47;;;;;;;0.77;0.77;;;;;;;26.49;51.15;95067.63;4348021;32;20199;-54
2022/06/23 12:39:20;;;;;;;0.60;0.60;;;;;;;26.49;51.10;95064.88;4356616;32;20188;-55
2022/06/23 12:41:51;;;;;;;3.33;3.13;;;;;;;26.56;50.01;95072.22;4359911;32;20184;-58
2022/06/23 12:44:51;;;;;;;1.73;1.63;;;;;;;26.48;51.48;95055.19;4358654;32;20189;-57
2022/06/23 12:47:35;;;;;;;2.10;1.70;;;;;;;26.55;51.60;95055.13;4352134;32;20193;-57
2022/06/23 12:50:00;;;;;;;1.30;1.20;;;;;;;26.52;50.65;95049.72;4355442;32;20189;-57
2022/06/23 12:52:44;;;;;;;7.60;1.43;;;;;;;26.44;51.36;95054.44;4345980;32;20196;-55
2022/06/23 12:55:39;;;;;;;1.73;1.17;;;;;;;26.32;51.55;95047.53;4347948;32;20254;-57
2022/06/23 12:58:46;;;;;;;0.97;0.90;;;;;;;26.27;49.80;95047.16;4347834;32;20235;-57
2022/06/23 13:01:18;;;;;;;3.63;1.00;;;;;;;26.40;49.14;95040.06;4350000;32;20232;-56
2022/06/23 13:03:54;;;;;;;1.47;1.37;;;;;;;26.37;50.26;95032.75;4342278;32;20238;-56
2022/06/23 13:07:05;;;;;;;6.47;6.07;;;;;;;26.35;53.15;95030.44;4342843;32;20202;-55
2022/06/23 13:09:51;;;;;;;9.30;1.37;;;;;;;26.41;51.09;95028.03;4317255;32;20245;-55